Nearby METAR Reports

 

KCRE - North Myrtle Bea, South Carolina, USA
Distance from station: SW 11mi, 18km
Updated: 12/13/2018 2:11am
Mist, Clear
Mist, Clear
 Wind from calm
Wind: Calm
Temperature: 36°F , 2°C
Dew Point: 36°F , 2°C
Humidity: 100%
Barometer: 30.25 inHg , 1024.4 hPa
Summary: Mist
Clouds: Clear
Visibility: 3 miles , 5 km
2018/12/13 07:11 KCRE 130711Z AUTO 00000KT 3SM BR CLR 02/02 A3025 RMK AO1 T00170017
KCPC - Whiteville, North Carolina, USA
Distance from station: NNW 26mi, 42km
Updated: 12/13/2018 2:20am
Partly cloudy
Partly cloudy
 Wind from calm
Wind: Calm
Temperature: 37°F , 3°C
Dew Point: 36°F , 2°C
Humidity: 93%
Barometer: 30.24 inHg , 1024 hPa
Clouds: Partly cloudy
Visibility: 10 miles , 16 km
Cloud details: Partly cloudy 11000 ft
2018/12/13 07:20 KCPC 130720Z AUTO 00000KT 10SM SCT110 03/02 A3024 RMK AO2 T00270017
 
KMYR - Myrtle Beach, South Carolina, USA
Distance from station: SW 27mi, 43km
Updated: 12/13/2018 1:56am
Clear
Clear
 Wind from calm
Wind: Calm
Temperature: 37°F , 3°C
Dew Point: 36°F , 2°C
Humidity: 93%
Barometer: 30.26 inHg , 1024.7 hPa
Clouds: Clear
Visibility: 9 miles , 14 km
2018/12/13 06:56 KMYR 130656Z AUTO 00000KT 9SM CLR 03/02 A3026 RMK AO2 SLP248 T00280022
KSUT - Southport, North Carolina, USA
Distance from station: E 28mi, 45km
Updated: 12/13/2018 2:20am
Clear
Clear
 Wind from calm
Wind: Calm
Temperature: 36°F , 2°C
Dew Point: 34°F , 1°C
Humidity: 93%
Barometer: 30.25 inHg , 1024.4 hPa
Clouds: Clear
Visibility: 10 miles , 16 km
2018/12/13 07:20 KSUT 130720Z AUTO 00000KT 10SM CLR 02/01 A3025 RMK AO2 T00150005
 
KHYW - Conway-Horry Cty, South Carolina, USA
Distance from station: WSW 32mi, 52km
Updated: 12/13/2018 2:15am
Mist, Clear
Mist, Clear
 Wind from calm
Wind: Calm
Temperature: 32°F , 0°C
Dew Point: 32°F , 0°C
Humidity: 100%
Barometer: 30.26 inHg , 1024.7 hPa
Summary: Mist
Clouds: Clear
Visibility: 5 miles , 8 km
2018/12/13 07:15 KHYW 130715Z AUTO 00000KT 5SM BR CLR 00/00 A3026 RMK AO2
KILM - Wilmington, North Carolina, USA
Distance from station: ENE 45mi, 72km
Updated: 12/13/2018 1:53am
Clear
Clear
 Wind from NE
Wind: NE 3 mph , 6 km/h
Temperature: 34°F , 1°C
Dew Point: 30°F , -1°C
Humidity: 87%
Barometer: 30.26 inHg , 1024.7 hPa
Clouds: Clear
Visibility: 8 miles , 13 km
2018/12/13 06:53 KILM 130653Z 04003KT 8SM CLR 01/M01 A3026 RMK AO2 SLP245 T00061006
 
KEYF - Elizabethtown, North Carolina, USA
Distance from station: N 47mi, 75km
Updated: 12/13/2018 2:20am
Clear
Clear
 Wind from SSE
Wind: SSE 3 mph , 6 km/h
Temperature: 37°F , 3°C
Dew Point: 36°F , 2°C
Humidity: 93%
Barometer: 30.25 inHg , 1024.4 hPa
Clouds: Clear
Visibility: 10 miles , 16 km
2018/12/13 07:20 KEYF 130720Z AUTO 15003KT 10SM CLR 03/02 A3025 RMK AO2 PWINO T00290022
KMAO - Marion, South Carolina, USA
Distance from station: WNW 47mi, 76km
Updated: 12/13/2018 2:35am
Clear
Clear
 Wind from calm
Wind: Calm
Temperature: 36°F , 2°C
Dew Point: 34°F , 1°C
Humidity: 93%
Barometer: 30.25 inHg , 1024.4 hPa
Clouds: Clear
Visibility: 10 miles , 16 km
2018/12/13 07:35 KMAO 130735Z AUTO 00000KT 10SM CLR 02/01 A3025 RMK AO2
 
KLBT - Lumberton, North Carolina, USA
Distance from station: NNW 55mi, 88km
Updated: 12/13/2018 1:54am
Clear
Clear
 Wind from calm
Wind: Calm
Temperature: 37°F , 3°C
Dew Point: 36°F , 2°C
Humidity: 93%
Barometer: 30.24 inHg , 1024 hPa
Clouds: Clear
Visibility: 10 miles , 16 km
2018/12/13 06:54 KLBT 130654Z AUTO 00000KT 10SM CLR 03/02 A3024 RMK AO2 SLP239 T00330022
KGGE - Georgetown, South Carolina, USA
Distance from station: SW 60mi, 97km
Updated: 12/13/2018 2:15am
Clear
Clear
 Wind from calm
Wind: Calm
Temperature: 34°F , 1°C
Dew Point: 32°F , 0°C
Humidity: 93%
Barometer: 30.27 inHg , 1025.1 hPa
Clouds: Clear
Visibility: 10 miles , 16 km
2018/12/13 07:15 KGGE 130715Z AUTO 00000KT 10SM CLR 01/00 A3027 RMK AO2
 
KFLO - Florence, South Carolina, USA
Distance from station: WNW 69mi, 111km
Updated: 12/13/2018 1:53am
Clear
Clear
 Wind from calm
Wind: Calm
Temperature: 37°F , 3°C
Dew Point: 36°F , 2°C
Humidity: 93%
Barometer: 30.23 inHg , 1023.7 hPa
Clouds: Clear
Visibility: 10 miles , 16 km
2018/12/13 06:53 KFLO 130653Z AUTO 00000KT 10SM CLR 03/02 A3023 RMK AO2 SLP237 T00330017
KCTZ - Clinton, North Carolina, USA
Distance from station: N 74mi, 119km
Updated: 12/13/2018 2:20am
Clear
Clear
 Wind from calm
Wind: Calm
Temperature: 36°F , 2°C
Dew Point: 36°F , 2°C
Humidity: 100%
Barometer: 30.26 inHg , 1024.7 hPa
Clouds: Clear
Visibility: 10 miles , 16 km
2018/12/13 07:20 KCTZ 130720Z AUTO 00000KT 10SM CLR 02/02 A3026 RMK AO2 T00240024
 
KMEB - Maxton, North Carolina, USA
Distance from station: NW 75mi, 120km
Updated: 12/13/2018 1:52am
Clear
Clear
 Wind from calm
Wind: Calm
Barometer: 30.24 inHg , 1024 hPa
Clouds: Clear
Visibility: 10 miles , 16 km
2018/12/13 06:52 KMEB 130652Z AUTO 00000KT 10SM CLR A3024 RMK AO2 SLPNO $
KCKI - Kingstree, South Carolina, USA
Distance from station: W 75mi, 121km
Updated: 12/13/2018 2:15am
Clear
Clear
 Wind from calm
Wind: Calm
Temperature: 34°F , 1°C
Dew Point: 32°F , 0°C
Humidity: 93%
Barometer: 30.25 inHg , 1024.4 hPa
Clouds: Clear
Visibility: 10 miles , 16 km
2018/12/13 07:15 KCKI 130715Z AUTO 00000KT 10SM CLR 01/00 A3025 RMK AO2
 
KFAY - Fayetteville, North Carolina, USA
Distance from station: NNW 75mi, 121km
Updated: 12/13/2018 1:53am
Clear
Clear
 Wind from SSW
Wind: SSW 5 mph , 7 km/h
Temperature: 36°F , 2°C
Wind Chill: 32°F , 0°C
Dew Point: 32°F , 0°C
Humidity: 87%
Barometer: 30.23 inHg , 1023.7 hPa
Clouds: Clear
Visibility: 10 miles , 16 km
2018/12/13 06:53 KFAY 130653Z 20004KT 10SM CLR 02/00 A3023 RMK AO2 SLP233 T00220000
KBBP - Marlboro Cnty, South Carolina, USA
Distance from station: NW 82mi, 132km
Updated: 12/13/2018 2:15am
Clear
Clear
 Wind from calm
Wind: Calm
Temperature: 36°F , 2°C
Dew Point: 36°F , 2°C
Humidity: 100%
Barometer: 30.23 inHg , 1023.7 hPa
Clouds: Clear
Visibility: 10 miles , 16 km
2018/12/13 07:15 KBBP 130715Z AUTO 00000KT 10SM CLR 02/02 A3023 RMK AO2
 
KDPL - Kenansville/Dupl, North Carolina, USA
Distance from station: NNE 82mi, 132km
Updated: 12/13/2018 2:20am
Mist, Clear
Mist, Clear
 Wind from calm
Wind: Calm
Temperature: 32°F , 0°C
Dew Point: 32°F , 0°C
Humidity: 100%
Barometer: 30.26 inHg , 1024.7 hPa
Summary: Mist
Clouds: Clear
Visibility: 3 1/2 miles , 5.6 km
2018/12/13 07:20 KDPL 130720Z AUTO 00000KT 3 1/2SM BR CLR 00/00 A3026 RMK AO2
KOAJ - Jacksonville, North Carolina, USA
Distance from station: NE 82mi, 132km
Updated: 12/13/2018 1:56am
Clear
Clear
 Wind from calm
Wind: Calm
Temperature: 34°F , 1°C
Dew Point: 32°F , 0°C
Humidity: 93%
Barometer: 30.26 inHg , 1024.7 hPa
Clouds: Clear
Visibility: 10 miles , 16 km
2018/12/13 06:56 KOAJ 130656Z AUTO 00000KT 10SM CLR 01/00 A3026 RMK AO2 SLP252 T00060000 FZRANO
 
KUDG - Darlington Cnty, South Carolina, USA
Distance from station: WNW 83mi, 134km
Updated: 12/13/2018 1:56am
Clear
Clear
 Wind from calm
Wind: Calm
Temperature: 37°F , 3°C
Dew Point: 36°F , 2°C
Humidity: 93%
Barometer: 30.23 inHg , 1023.7 hPa
Clouds: Clear
Visibility: 10 miles , 16 km
2018/12/13 06:56 KUDG 130656Z AUTO 00000KT 10SM CLR 03/02 A3023 RMK AO2 SLP244 T00280017
KNCA - New River Mcas, North Carolina, USA
Distance from station: NE 84mi, 135km
Updated: 12/13/2018 1:56am
Clear
Clear
 Wind from calm
Wind: Calm
Temperature: 36°F , 2°C
Dew Point: 34°F , 1°C
Humidity: 93%
Barometer: 30.26 inHg , 1024.7 hPa
Clouds: Clear
Visibility: 10 miles , 16 km
2018/12/13 06:56 KNCA 130656Z AUTO 00000KT 10SM CLR 02/01 A3026 RMK AO2 SLP248 T00170011